createdAt,value
2023-04-23T00:00:17.672Z,50.908432
2023-04-23T00:01:17.638Z,50.908436
2023-04-23T00:02:17.732Z,50.908379
2023-04-23T00:03:17.747Z,50.908436
2023-04-23T00:04:17.735Z,50.908428
2023-04-23T00:05:17.650Z,50.908424
2023-04-23T00:06:17.624Z,50.908260
2023-04-23T00:07:17.591Z,50.908169
2023-04-23T00:08:17.591Z,50.908272
2023-04-23T00:09:17.567Z,50.908184
2023-04-23T00:10:17.607Z,50.908119
2023-04-23T00:11:17.559Z,50.908119
2023-04-23T00:12:17.538Z,50.908119
2023-04-23T00:13:17.538Z,50.908119
2023-04-23T00:14:17.534Z,50.908020
2023-04-23T00:15:17.548Z,50.908131
2023-04-23T00:16:17.563Z,50.908184
2023-04-23T00:17:17.518Z,50.908127
2023-04-23T00:18:17.635Z,50.908047
2023-04-23T00:19:17.501Z,50.908112
2023-04-23T00:20:17.510Z,50.908241
2023-04-23T00:21:17.472Z,50.908295
2023-04-23T00:22:17.467Z,50.908291
2023-04-23T00:23:17.456Z,50.908180
2023-04-23T00:24:17.452Z,50.908073
2023-04-23T00:25:17.475Z,50.907959
2023-04-23T00:26:17.434Z,50.908089
2023-04-23T00:27:17.424Z,50.908226
2023-04-23T00:28:17.425Z,50.908253
2023-04-23T00:29:17.413Z,50.908253
2023-04-23T00:30:17.509Z,50.908253
2023-04-23T00:31:17.445Z,50.908253
2023-04-23T00:32:17.390Z,50.908112
2023-04-23T00:33:17.384Z,50.908176
2023-04-23T00:34:17.366Z,50.908195
2023-04-23T00:35:17.361Z,50.908234
2023-04-23T00:36:17.383Z,50.908096
2023-04-23T00:37:17.365Z,50.908104
2023-04-23T00:38:17.338Z,50.908215
2023-04-23T00:39:17.331Z,50.908165
2023-04-23T00:40:17.335Z,50.908089
2023-04-23T00:41:17.362Z,50.908028
2023-04-23T00:42:17.332Z,50.908276
2023-04-23T00:43:17.295Z,50.908310
2023-04-23T00:44:17.492Z,50.908226
2023-04-23T00:45:17.350Z,50.908295
2023-04-23T00:46:17.363Z,50.908298
2023-04-23T00:47:17.333Z,50.908340
2023-04-23T00:48:17.423Z,50.908237
2023-04-23T00:49:17.249Z,50.908226
2023-04-23T00:50:17.368Z,50.908123
2023-04-23T00:51:17.243Z,50.908119
2023-04-23T00:52:17.222Z,50.908154
2023-04-23T00:53:17.223Z,50.908001
2023-04-23T00:54:17.227Z,50.907883
2023-04-23T00:55:17.207Z,50.908287
2023-04-23T00:56:17.224Z,50.908192
2023-04-23T00:57:17.193Z,50.908165
2023-04-23T00:58:17.204Z,50.908237
2023-04-23T00:59:17.170Z,50.908302
2023-04-23T01:00:17.163Z,50.908241
2023-04-23T01:01:17.264Z,50.908230
2023-04-23T01:02:17.209Z,50.908401
2023-04-23T01:03:17.265Z,50.908264
2023-04-23T01:04:17.207Z,50.908264
2023-04-23T01:05:17.124Z,50.908283
2023-04-23T01:06:17.140Z,50.908295
2023-04-23T01:07:17.108Z,50.908226
2023-04-23T01:08:17.112Z,50.908340
2023-04-23T01:09:17.094Z,50.908279
2023-04-23T01:10:17.093Z,50.908295
2023-04-23T01:11:17.110Z,50.908279
2023-04-23T01:12:17.091Z,50.908260
2023-04-23T01:13:17.055Z,50.908222
2023-04-23T01:14:17.059Z,50.908249
2023-04-23T01:15:17.049Z,50.908253
2023-04-23T01:16:17.077Z,50.908257
2023-04-23T01:17:17.031Z,50.908264
2023-04-23T01:18:17.039Z,50.908207
2023-04-23T01:19:17.018Z,50.908230
2023-04-23T01:20:17.017Z,50.908279
2023-04-23T01:21:17.105Z,50.908199
2023-04-23T01:22:17.004Z,50.908161
2023-04-23T01:23:17.005Z,50.908157
2023-04-23T01:24:16.973Z,50.908157
2023-04-23T01:25:16.978Z,50.908188
2023-04-23T01:26:16.984Z,50.908161
2023-04-23T01:27:16.953Z,50.908154
2023-04-23T01:28:17.051Z,50.908127
2023-04-23T01:29:16.944Z,50.908142
2023-04-23T01:30:16.929Z,50.908146
2023-04-23T01:31:17.002Z,50.908150
2023-04-23T01:32:16.921Z,50.908092
2023-04-23T01:33:17.913Z,50.908108
2023-04-23T01:34:16.893Z,50.908134
2023-04-23T01:35:16.895Z,50.908150
2023-04-23T01:36:16.909Z,50.908092
2023-04-23T01:37:16.871Z,50.908146
2023-04-23T01:38:16.861Z,50.908131
2023-04-23T01:39:16.856Z,50.908070
2023-04-23T01:40:16.843Z,50.908096
2023-04-23T01:41:16.870Z,50.908104
2023-04-23T01:42:16.833Z,50.908119
2023-04-23T01:43:16.821Z,50.908154
2023-04-23T01:44:16.823Z,50.908150
2023-04-23T01:45:16.807Z,50.908146
2023-04-23T01:46:16.849Z,50.908127
2023-04-23T01:47:16.799Z,50.908146
2023-04-23T01:48:16.857Z,50.908165
2023-04-23T01:49:16.781Z,50.908127
2023-04-23T01:50:16.770Z,50.908207
2023-04-23T01:51:16.787Z,50.908127
2023-04-23T01:52:16.754Z,50.908119
2023-04-23T01:53:16.752Z,50.908096
2023-04-23T01:54:16.736Z,50.908058
2023-04-23T01:55:16.734Z,50.908085
2023-04-23T01:56:16.745Z,50.908100
2023-04-23T01:57:16.711Z,50.908085
2023-04-23T01:58:16.703Z,50.908115
2023-04-23T01:59:16.697Z,50.908035
2023-04-23T02:00:16.687Z,50.908157
2023-04-23T02:01:16.724Z,50.908211
2023-04-23T02:02:16.717Z,50.908207
2023-04-23T02:03:16.728Z,50.908230
2023-04-23T02:04:16.834Z,50.908241
2023-04-23T02:05:16.782Z,50.908215
2023-04-23T02:06:16.679Z,50.908173
2023-04-23T02:07:16.664Z,50.908150
2023-04-23T02:08:16.643Z,50.908119
2023-04-23T02:09:16.640Z,50.908165
2023-04-23T02:10:16.615Z,50.908203
2023-04-23T02:11:16.632Z,50.908134
2023-04-23T02:12:16.606Z,50.908169
2023-04-23T02:13:16.589Z,50.908176
2023-04-23T02:14:16.581Z,50.908157
2023-04-23T02:15:16.616Z,50.908165
2023-04-23T02:16:16.637Z,50.908154
2023-04-23T02:17:16.559Z,50.908173
2023-04-23T02:18:16.549Z,50.908184
2023-04-23T02:19:16.809Z,50.908138
2023-04-23T02:20:16.546Z,50.908146
2023-04-23T02:21:16.552Z,50.908169
2023-04-23T02:22:16.513Z,50.908173
2023-04-23T02:23:16.507Z,50.908157
2023-04-23T02:24:16.508Z,50.908176
2023-04-23T02:25:16.491Z,50.908150
2023-04-23T02:26:16.505Z,50.908173
2023-04-23T02:27:16.475Z,50.908146
2023-04-23T02:28:16.472Z,50.908165
2023-04-23T02:29:16.457Z,50.908180
2023-04-23T02:30:16.456Z,50.908154
2023-04-23T02:31:16.544Z,50.908173
2023-04-23T02:32:16.431Z,50.908195
2023-04-23T02:33:16.430Z,50.908195
2023-04-23T02:34:16.419Z,50.908150
2023-04-23T02:35:16.427Z,50.908150
2023-04-23T02:36:16.436Z,50.908173
2023-04-23T02:37:16.398Z,50.908192
2023-04-23T02:38:16.390Z,50.908184
2023-04-23T02:39:16.365Z,50.908127
2023-04-23T02:40:17.384Z,50.908115
2023-04-23T02:41:16.384Z,50.908157
2023-04-23T02:42:16.352Z,50.908215
2023-04-23T02:43:16.362Z,50.908215
2023-04-23T02:44:16.339Z,50.908192
2023-04-23T02:45:16.345Z,50.908188
2023-04-23T02:46:16.385Z,50.908215
2023-04-23T02:47:16.316Z,50.908195
2023-04-23T02:48:16.308Z,50.908226
2023-04-23T02:49:16.289Z,50.908199
2023-04-23T02:50:16.297Z,50.908188
2023-04-23T02:51:16.311Z,50.908138
2023-04-23T02:52:16.275Z,50.908173
2023-04-23T02:53:16.370Z,50.908176
2023-04-23T02:54:16.275Z,50.908157
2023-04-23T02:55:16.249Z,50.908218
2023-04-23T02:56:16.267Z,50.908207
2023-04-23T02:57:16.228Z,50.908188
2023-04-23T02:58:16.218Z,50.908188
2023-04-23T02:59:16.225Z,50.908173
2023-04-23T03:00:16.209Z,50.908192
2023-04-23T03:01:16.237Z,50.908165
2023-04-23T03:02:16.254Z,50.908119
2023-04-23T03:03:16.314Z,50.908161
2023-04-23T03:04:16.184Z,50.908180
2023-04-23T03:05:16.163Z,50.908150
2023-04-23T03:06:16.193Z,50.908104
2023-04-23T03:07:16.153Z,50.908127
2023-04-23T03:08:16.151Z,50.908157
2023-04-23T03:09:16.134Z,50.908134
2023-04-23T03:10:16.161Z,50.908157
2023-04-23T03:11:16.146Z,50.908150
2023-04-23T03:12:16.117Z,50.908127
2023-04-23T03:13:16.287Z,50.908066
2023-04-23T03:14:16.099Z,50.908119
2023-04-23T03:15:16.093Z,50.908173
2023-04-23T03:16:16.131Z,50.908123
2023-04-23T03:17:16.083Z,50.908211
2023-04-23T03:18:16.075Z,50.908176
2023-04-23T03:19:16.060Z,50.908108
2023-04-23T03:20:16.043Z,50.908192
2023-04-23T03:21:17.097Z,50.908134
2023-04-23T03:22:16.041Z,50.908089
2023-04-23T03:23:16.034Z,50.908188
2023-04-23T03:24:16.020Z,50.908154
2023-04-23T03:25:16.020Z,50.908119
2023-04-23T03:26:16.008Z,50.908199
2023-04-23T03:27:16.021Z,50.908146
2023-04-23T03:28:15.995Z,50.908245
2023-04-23T03:29:16.068Z,50.908192
2023-04-23T03:30:15.976Z,50.908131
2023-04-23T03:31:16.021Z,50.908184
2023-04-23T03:32:15.980Z,50.908146
2023-04-23T03:33:15.954Z,50.908203
2023-04-23T03:34:15.946Z,50.908199
2023-04-23T03:35:16.953Z,50.908169
2023-04-23T03:36:16.930Z,50.908192
2023-04-23T03:37:15.942Z,50.908180
2023-04-23T03:38:15.907Z,50.908180
2023-04-23T03:39:15.912Z,50.908127
2023-04-23T03:40:15.926Z,50.908123
2023-04-23T03:41:16.544Z,50.908184
2023-04-23T03:42:15.903Z,50.908142
2023-04-23T03:43:15.870Z,50.908127
2023-04-23T03:44:15.872Z,50.908112
2023-04-23T03:45:15.860Z,50.908146
2023-04-23T03:46:15.853Z,50.908043
2023-04-23T03:47:15.872Z,50.908165
2023-04-23T03:48:15.842Z,50.908157
2023-04-23T03:49:15.853Z,50.908119
2023-04-23T03:50:15.818Z,50.908108
2023-04-23T03:51:15.809Z,50.908123
2023-04-23T03:52:15.823Z,50.908134
2023-04-23T03:53:15.794Z,50.908173
2023-04-23T03:54:15.794Z,50.908176
2023-04-23T03:55:15.776Z,50.908146
2023-04-23T03:56:15.778Z,50.908169
2023-04-23T03:57:15.799Z,50.908142
2023-04-23T03:58:15.754Z,50.908146
2023-04-23T03:59:15.752Z,50.908169
2023-04-23T04:00:15.738Z,50.908157
2023-04-23T04:01:15.732Z,50.908142
2023-04-23T04:02:15.886Z,50.908134
2023-04-23T04:03:15.837Z,50.908146
2023-04-23T04:04:16.026Z,50.908146
2023-04-23T04:05:15.909Z,50.908134
2023-04-23T04:06:15.698Z,50.908154
2023-04-23T04:07:15.715Z,50.908169
2023-04-23T04:08:15.730Z,50.908104
2023-04-23T04:09:16.674Z,50.908104
2023-04-23T04:10:15.669Z,50.908104
2023-04-23T04:11:15.670Z,50.908104
2023-04-23T04:12:15.675Z,50.908150
2023-04-23T04:13:15.646Z,50.908157
2023-04-23T04:14:15.634Z,50.908165
2023-04-23T04:15:15.625Z,50.908031
2023-04-23T04:16:15.642Z,50.908096
2023-04-23T04:17:15.623Z,50.908134
2023-04-23T04:18:15.627Z,50.908146
2023-04-23T04:19:15.600Z,50.908142
2023-04-23T04:20:15.589Z,50.908154
2023-04-23T04:21:15.578Z,50.908150
2023-04-23T04:22:15.577Z,50.908157
2023-04-23T04:23:15.606Z,50.908161
2023-04-23T04:24:15.562Z,50.908173
2023-04-23T04:25:15.548Z,50.908195
2023-04-23T04:26:15.537Z,50.908173
2023-04-23T04:27:15.538Z,50.908173
2023-04-23T04:28:15.540Z,50.908188
2023-04-23T04:29:15.519Z,50.908154
2023-04-23T04:30:15.511Z,50.908146
2023-04-23T04:31:15.528Z,50.908157
2023-04-23T04:32:15.489Z,50.908165
2023-04-23T04:33:15.505Z,50.908142
2023-04-23T04:34:15.473Z,50.908169
2023-04-23T04:35:15.465Z,50.908180
2023-04-23T04:36:15.450Z,50.908173
2023-04-23T04:37:15.460Z,50.908195
2023-04-23T04:38:15.460Z,50.908165
2023-04-23T04:39:15.437Z,50.908165
2023-04-23T04:40:15.428Z,50.908154
2023-04-23T04:41:15.413Z,50.908142
2023-04-23T04:42:15.436Z,50.908146
2023-04-23T04:43:15.397Z,50.908176
2023-04-23T04:44:15.390Z,50.908150
2023-04-23T04:45:15.384Z,50.908142
2023-04-23T04:46:15.419Z,50.908138
2023-04-23T04:47:15.393Z,50.908176
2023-04-23T04:48:15.385Z,50.908154
2023-04-23T04:49:15.357Z,50.908142
2023-04-23T04:50:15.346Z,50.908161
2023-04-23T04:51:15.343Z,50.908176
2023-04-23T04:52:15.357Z,50.908157
2023-04-23T04:53:15.323Z,50.908150
2023-04-23T04:54:15.311Z,50.908169
2023-04-23T04:55:15.306Z,50.908173
2023-04-23T04:56:15.290Z,50.908180
2023-04-23T04:57:15.316Z,50.908169
2023-04-23T04:58:15.281Z,50.908169
2023-04-23T04:59:15.286Z,50.908173
2023-04-23T05:00:15.267Z,50.908180
2023-04-23T05:01:15.267Z,50.908146
2023-04-23T05:02:15.366Z,50.908146
2023-04-23T05:03:15.373Z,50.908176
2023-04-23T05:04:15.461Z,50.908157
2023-04-23T05:05:15.239Z,50.908157
2023-04-23T05:06:15.222Z,50.908154
2023-04-23T05:07:15.237Z,50.908119
2023-04-23T05:08:15.210Z,50.908180
2023-04-23T05:09:15.202Z,50.908195
2023-04-23T05:10:15.197Z,50.908199
2023-04-23T05:11:16.196Z,50.908127
2023-04-23T05:12:15.205Z,50.908157
2023-04-23T05:13:15.178Z,50.908150
2023-04-23T05:14:15.163Z,50.908134
2023-04-23T05:15:15.176Z,50.908150
2023-04-23T05:16:15.199Z,50.908134
2023-04-23T05:17:15.145Z,50.908104
2023-04-23T05:18:15.163Z,50.908112
2023-04-23T05:19:15.144Z,50.908104
2023-04-23T05:20:15.124Z,50.908089
2023-04-23T05:21:15.136Z,50.908123
2023-04-23T05:22:15.095Z,50.908112
2023-04-23T05:23:15.139Z,50.908157
2023-04-23T05:24:15.086Z,50.908154
2023-04-23T05:25:15.089Z,50.908119
2023-04-23T05:26:15.199Z,50.908112
2023-04-23T05:27:15.076Z,50.908104
2023-04-23T05:28:15.073Z,50.908073
2023-04-23T05:29:15.045Z,50.908119
2023-04-23T05:30:15.049Z,50.908131
2023-04-23T05:31:15.039Z,50.908142
2023-04-23T05:32:15.097Z,50.908123
2023-04-23T05:33:15.038Z,50.908146
2023-04-23T05:34:15.011Z,50.908169
2023-04-23T05:35:15.008Z,50.908154
2023-04-23T05:36:14.989Z,50.908138
2023-04-23T05:37:14.981Z,50.908146
2023-04-23T05:38:14.997Z,50.908142
2023-04-23T05:39:14.996Z,50.908211
2023-04-23T05:40:14.953Z,50.908154
2023-04-23T05:41:14.955Z,50.908195
2023-04-23T05:42:14.954Z,50.908104
2023-04-23T05:43:14.956Z,50.908096
2023-04-23T05:44:14.925Z,50.908115
2023-04-23T05:45:14.945Z,50.908115
2023-04-23T05:46:14.957Z,50.908131
2023-04-23T05:47:14.910Z,50.908085
2023-04-23T05:48:14.915Z,50.908119
2023-04-23T05:49:14.892Z,50.908134
2023-04-23T05:50:14.900Z,50.908119
2023-04-23T05:51:14.869Z,50.908100
2023-04-23T05:52:14.868Z,50.908119
2023-04-23T05:53:14.883Z,50.908154
2023-04-23T05:54:14.861Z,50.908154
2023-04-23T05:55:14.839Z,50.908123
2023-04-23T05:56:14.839Z,50.908089
2023-04-23T05:57:14.821Z,50.908104
2023-04-23T05:58:14.837Z,50.908051
2023-04-23T05:59:14.802Z,50.908054
2023-04-23T06:00:14.798Z,50.908100
2023-04-23T06:01:14.787Z,50.908112
2023-04-23T06:02:14.895Z,50.908131
2023-04-23T06:03:15.002Z,50.908127
2023-04-23T06:04:14.891Z,50.908138
2023-04-23T06:05:15.030Z,50.908165
2023-04-23T06:06:14.745Z,50.908115
2023-04-23T06:07:14.738Z,50.908123
2023-04-23T06:08:14.763Z,50.908100
2023-04-23T06:09:14.725Z,50.908115
2023-04-23T06:10:14.712Z,50.908092
2023-04-23T06:11:14.716Z,50.908081
2023-04-23T06:12:14.705Z,50.908073
2023-04-23T06:13:14.724Z,50.908115
2023-04-23T06:14:14.701Z,50.908123
2023-04-23T06:15:14.684Z,50.908119
2023-04-23T06:16:14.697Z,50.908127
2023-04-23T06:17:14.665Z,50.908104
2023-04-23T06:18:14.794Z,50.908146
2023-04-23T06:19:14.651Z,50.908142
2023-04-23T06:20:15.642Z,50.908108
2023-04-23T06:21:14.652Z,50.908131
2023-04-23T06:22:14.629Z,50.908081
2023-04-23T06:23:14.638Z,50.908058
2023-04-23T06:24:14.609Z,50.908092
2023-04-23T06:25:14.608Z,50.908104
2023-04-23T06:26:14.589Z,50.908081
2023-04-23T06:27:14.582Z,50.908092
2023-04-23T06:28:14.601Z,50.908066
2023-04-23T06:29:14.570Z,50.908066
2023-04-23T06:30:14.561Z,50.908070
2023-04-23T06:31:14.578Z,50.908081
2023-04-23T06:32:14.545Z,50.908066
2023-04-23T06:33:14.565Z,50.908108
2023-04-23T06:34:14.531Z,50.908054
2023-04-23T06:35:14.536Z,50.908016
2023-04-23T06:36:14.514Z,50.908009
2023-04-23T06:37:14.502Z,50.908066
2023-04-23T06:38:14.519Z,50.908024
2023-04-23T06:39:14.488Z,50.908001
2023-04-23T06:40:14.484Z,50.907955
2023-04-23T06:41:14.479Z,50.907978
2023-04-23T06:42:14.469Z,50.908005
2023-04-23T06:43:14.495Z,50.908024
2023-04-23T06:44:14.449Z,50.908077
2023-04-23T06:45:14.442Z,50.908112
2023-04-23T06:46:14.434Z,50.908127
2023-04-23T06:47:14.428Z,50.908123
2023-04-23T06:48:14.451Z,50.908077
2023-04-23T06:49:14.407Z,50.908089
2023-04-23T06:50:14.402Z,50.908077
2023-04-23T06:51:14.391Z,50.908134
2023-04-23T06:52:14.392Z,50.908100
2023-04-23T06:53:14.766Z,50.908146
2023-04-23T06:54:14.370Z,50.908138
2023-04-23T06:55:14.385Z,50.908089
2023-04-23T06:56:14.654Z,50.908085
2023-04-23T06:57:14.343Z,50.908085
2023-04-23T06:58:15.551Z,50.908092
2023-04-23T06:59:15.351Z,50.908134
2023-04-23T07:00:14.318Z,50.908119
2023-04-23T07:01:14.349Z,50.908119
2023-04-23T07:02:14.335Z,50.908108
2023-04-23T07:03:14.339Z,50.908115
2023-04-23T07:04:14.359Z,50.908127
2023-04-23T07:05:14.290Z,50.908096
2023-04-23T07:06:14.284Z,50.908089
2023-04-23T07:07:14.289Z,50.908039
2023-04-23T07:08:14.271Z,50.908108
2023-04-23T07:09:14.289Z,50.908100
2023-04-23T07:10:16.954Z,50.908089
2023-04-23T07:11:14.258Z,50.908104
2023-04-23T07:12:14.246Z,50.908123
2023-04-23T07:13:14.240Z,50.908154
2023-04-23T07:14:14.254Z,50.908134
2023-04-23T07:15:14.236Z,50.908123
2023-04-23T07:16:14.238Z,50.908127
2023-04-23T07:17:14.215Z,50.908108
2023-04-23T07:18:14.216Z,50.908092
2023-04-23T07:19:14.224Z,50.908081
2023-04-23T07:20:14.190Z,50.908115
2023-04-23T07:21:14.182Z,50.908119
2023-04-23T07:22:14.176Z,50.908127
2023-04-23T07:23:14.171Z,50.908134
2023-04-23T07:24:14.188Z,50.908123
2023-04-23T07:25:14.154Z,50.908104
2023-04-23T07:26:14.152Z,50.908096
2023-04-23T07:27:14.144Z,50.908134
2023-04-23T07:28:14.133Z,50.908146
2023-04-23T07:29:14.184Z,50.908127
2023-04-23T07:30:14.129Z,50.908154
2023-04-23T07:31:14.112Z,50.908142
2023-04-23T07:32:14.236Z,50.908123
2023-04-23T07:33:14.098Z,50.908104
2023-04-23T07:34:14.111Z,50.908081
2023-04-23T07:35:14.081Z,50.908112
2023-04-23T07:36:14.075Z,50.908146
2023-04-23T07:37:14.069Z,50.908085
2023-04-23T07:38:14.059Z,50.908108
2023-04-23T07:39:14.078Z,50.908077
2023-04-23T07:40:14.052Z,50.908012
2023-04-23T07:41:14.043Z,50.908150
2023-04-23T07:42:14.033Z,50.908119
2023-04-23T07:43:14.032Z,50.908119
2023-04-23T07:44:14.040Z,50.908127
2023-04-23T07:45:14.015Z,50.908138
2023-04-23T07:46:14.020Z,50.908169
2023-04-23T07:47:13.990Z,50.908157
2023-04-23T07:48:13.987Z,50.908150
2023-04-23T07:49:14.227Z,50.908119
2023-04-23T07:50:13.970Z,50.908142
2023-04-23T07:51:13.964Z,50.908150
2023-04-23T07:52:13.965Z,50.908108
2023-04-23T07:53:13.950Z,50.908077
2023-04-23T07:54:13.961Z,50.908062
2023-04-23T07:55:13.932Z,50.908058
2023-04-23T07:56:13.934Z,50.908073
2023-04-23T07:57:14.931Z,50.908096
2023-04-23T07:58:13.917Z,50.908081
2023-04-23T07:59:13.933Z,50.908085
2023-04-23T08:00:13.899Z,50.908115
2023-04-23T08:01:13.891Z,50.908077
2023-04-23T08:02:14.117Z,50.908085
2023-04-23T08:03:13.968Z,50.908062
2023-04-23T08:04:15.141Z,50.908104
2023-04-23T08:05:13.874Z,50.908112
2023-04-23T08:06:13.855Z,50.908077
2023-04-23T08:07:13.849Z,50.908108
2023-04-23T08:08:13.841Z,50.908085
2023-04-23T08:09:13.862Z,50.908089
2023-04-23T08:10:13.828Z,50.908092
2023-04-23T08:11:13.823Z,50.908089
2023-04-23T08:12:13.826Z,50.908169
2023-04-23T08:13:13.806Z,50.908100
2023-04-23T08:14:13.797Z,50.908092
2023-04-23T08:15:13.817Z,50.908150
2023-04-23T08:16:13.813Z,50.908115
2023-04-23T08:17:13.776Z,50.908096
2023-04-23T08:18:13.770Z,50.908131
2023-04-23T08:19:13.764Z,50.908123
2023-04-23T08:20:13.786Z,50.908073
2023-04-23T08:21:13.745Z,50.908119
2023-04-23T08:22:13.736Z,50.908127
2023-04-23T08:23:13.723Z,50.908195
2023-04-23T08:24:13.722Z,50.908039
2023-04-23T08:25:14.739Z,50.908104
2023-04-23T08:26:13.712Z,50.908131
2023-04-23T08:27:13.701Z,50.908096
2023-04-23T08:28:13.694Z,50.908054
2023-04-23T08:29:13.685Z,50.908154
2023-04-23T08:30:13.702Z,50.908123
2023-04-23T08:31:25.845Z,50.908119
2023-04-23T08:32:15.737Z,50.908150
2023-04-23T08:33:13.654Z,50.908142
2023-04-23T08:34:13.652Z,50.908100
2023-04-23T08:35:13.668Z,50.907997
2023-04-23T08:36:13.633Z,50.908138
2023-04-23T08:37:23.068Z,50.908134
2023-04-23T08:38:15.620Z,50.908100
2023-04-23T08:39:13.608Z,50.908100
2023-04-23T08:40:13.870Z,50.908066
2023-04-23T08:41:13.596Z,50.908031
2023-04-23T08:42:13.586Z,50.908108
2023-04-23T08:43:13.583Z,50.908112
2023-04-23T08:44:13.573Z,50.908150
2023-04-23T08:45:13.599Z,50.908119
2023-04-23T08:46:13.606Z,50.908112
2023-04-23T08:47:13.571Z,50.908123
2023-04-23T08:48:13.555Z,50.908134
2023-04-23T08:49:13.540Z,50.908154
2023-04-23T08:50:13.564Z,50.908119
2023-04-23T08:51:13.518Z,50.908119
2023-04-23T08:52:13.519Z,50.908180
2023-04-23T08:53:13.508Z,50.908188
2023-04-23T08:54:13.499Z,50.908131
2023-04-23T08:55:13.524Z,50.908169
2023-04-23T08:56:13.493Z,50.908081
2023-04-23T08:57:13.481Z,50.908108
2023-04-23T08:58:13.527Z,50.908112
2023-04-23T08:59:13.467Z,50.908092
2023-04-23T09:00:13.498Z,50.908165
2023-04-23T09:01:13.503Z,50.908085
2023-04-23T09:02:13.530Z,50.908169
2023-04-23T09:03:13.540Z,50.908176
2023-04-23T09:04:13.433Z,50.908184
2023-04-23T09:05:13.485Z,50.908173
2023-04-23T09:06:13.438Z,50.908134
2023-04-23T09:07:13.410Z,50.908112
2023-04-23T09:08:13.407Z,50.908108
2023-04-23T09:09:13.402Z,50.908123
2023-04-23T09:10:14.822Z,50.908142
2023-04-23T09:11:13.408Z,50.908154
2023-04-23T09:12:13.385Z,50.908131
2023-04-23T09:13:13.377Z,50.908188
2023-04-23T09:14:13.372Z,50.908173
2023-04-23T09:15:13.483Z,50.908150
2023-04-23T09:16:13.388Z,50.908180
2023-04-23T09:17:13.338Z,50.908112
2023-04-23T09:18:13.336Z,50.908134
2023-04-23T09:19:13.331Z,50.908115
2023-04-23T09:20:13.344Z,50.908005
2023-04-23T09:21:13.321Z,50.907974
2023-04-23T09:22:13.307Z,50.908146
2023-04-23T09:23:13.297Z,50.908157
2023-04-23T09:24:13.306Z,50.908207
2023-04-23T09:25:13.308Z,50.908192
2023-04-23T09:26:13.280Z,50.908272
2023-04-23T09:27:13.278Z,50.908199
2023-04-23T09:28:13.265Z,50.908165
2023-04-23T09:29:13.251Z,50.908173
2023-04-23T09:30:13.293Z,50.908169
2023-04-23T09:31:13.235Z,50.908199
2023-04-23T09:32:13.293Z,50.908173
2023-04-23T09:33:13.231Z,50.908295
2023-04-23T09:34:13.214Z,50.908096
2023-04-23T09:35:13.231Z,50.908112
2023-04-23T09:36:13.198Z,50.908138
2023-04-23T09:37:13.192Z,50.908081
2023-04-23T09:38:13.185Z,50.908131
2023-04-23T09:39:13.179Z,50.908211
2023-04-23T09:40:13.206Z,50.908176
2023-04-23T09:41:13.156Z,50.908138
2023-04-23T09:42:13.155Z,50.908092
2023-04-23T09:43:13.141Z,50.908215
2023-04-23T09:44:13.135Z,50.908161
2023-04-23T09:45:13.150Z,50.908154
2023-04-23T09:46:13.151Z,50.908157
2023-04-23T09:47:13.109Z,50.908100
2023-04-23T09:48:13.101Z,50.908051
2023-04-23T09:49:13.099Z,50.908138
2023-04-23T09:50:13.117Z,50.908131
2023-04-23T09:51:13.107Z,50.908134
2023-04-23T09:52:13.073Z,50.908138
2023-04-23T09:53:13.061Z,50.908131
2023-04-23T09:54:13.056Z,50.908119
2023-04-23T09:55:13.046Z,50.908161
2023-04-23T09:56:13.065Z,50.908146
2023-04-23T09:57:13.027Z,50.908127
2023-04-23T09:58:13.029Z,50.908138
2023-04-23T09:59:13.014Z,50.908146
2023-04-23T10:00:14.796Z,50.908112
2023-04-23T10:01:14.106Z,50.908131
2023-04-23T10:02:13.130Z,50.908146
2023-04-23T10:03:13.097Z,50.908180
2023-04-23T10:04:13.150Z,50.908180
2023-04-23T10:05:23.546Z,50.908150
2023-04-23T10:06:25.894Z,50.908150
2023-04-23T10:07:19.634Z,50.908173
2023-04-23T10:08:14.946Z,50.908154
2023-04-23T10:09:12.941Z,50.908165
2023-04-23T10:10:12.960Z,50.908173
2023-04-23T10:11:20.674Z,50.908157
2023-04-23T10:13:13.908Z,50.908180
2023-04-23T10:14:12.897Z,50.908138
2023-04-23T10:15:12.882Z,50.908165
2023-04-23T10:16:22.194Z,50.908188
2023-04-23T10:17:14.881Z,50.908165
2023-04-23T10:18:12.877Z,50.908146
2023-04-23T10:19:13.457Z,50.908169
2023-04-23T10:20:12.881Z,50.908134
2023-04-23T10:21:12.842Z,50.908123
2023-04-23T10:23:13.830Z,50.908199
2023-04-23T10:24:12.826Z,50.908150
2023-04-23T10:25:12.820Z,50.908150
2023-04-23T10:26:12.837Z,50.908146
2023-04-23T10:27:24.819Z,50.908157
2023-04-23T10:28:14.787Z,50.908146
2023-04-23T10:29:12.787Z,50.908134
2023-04-23T10:30:12.805Z,50.908134
2023-04-23T10:31:12.788Z,50.908131
2023-04-23T10:32:12.800Z,50.908131
2023-04-23T10:33:22.442Z,50.908138
2023-04-23T10:34:14.771Z,50.908119
2023-04-23T10:35:12.742Z,50.908134
2023-04-23T10:36:12.754Z,50.908154
2023-04-23T10:37:12.720Z,50.908073
2023-04-23T10:38:13.713Z,50.908127
2023-04-23T10:39:12.707Z,50.908138
2023-04-23T10:40:12.727Z,50.908150
2023-04-23T10:41:12.690Z,50.908188
2023-04-23T10:42:12.681Z,50.908165
2023-04-23T10:43:12.670Z,50.908169
2023-04-23T10:44:12.658Z,50.908150
2023-04-23T10:45:23.399Z,50.908134
2023-04-23T10:46:14.717Z,50.908150
2023-04-23T10:47:12.643Z,50.908165
2023-04-23T10:48:12.634Z,50.908161
2023-04-23T10:49:12.629Z,50.908138
2023-04-23T10:50:12.614Z,50.908146
2023-04-23T10:51:53.143Z,50.908142
2023-04-23T10:52:20.673Z,50.908146
2023-04-23T10:53:14.636Z,50.908146
2023-04-23T10:54:12.580Z,50.908131
2023-04-23T10:55:12.574Z,50.908123
2023-04-23T10:56:12.590Z,50.908150
2023-04-23T10:57:12.561Z,50.908127
2023-04-23T10:58:12.550Z,50.908108
2023-04-23T10:59:12.550Z,50.908123
2023-04-23T11:00:12.540Z,50.908119
2023-04-23T11:01:12.559Z,50.908089
2023-04-23T11:02:12.598Z,50.908138
2023-04-23T11:03:12.648Z,50.908100
2023-04-23T11:04:12.658Z,50.908188
2023-04-23T11:05:12.504Z,50.908138
2023-04-23T11:06:12.514Z,50.908108
2023-04-23T11:07:13.488Z,50.908096
2023-04-23T11:08:19.296Z,50.908096
2023-04-23T11:09:14.477Z,50.908146
2023-04-23T11:10:12.462Z,50.908142
2023-04-23T11:11:12.477Z,50.908150
2023-04-23T11:12:12.454Z,50.908134
2023-04-23T11:13:12.435Z,50.908134
2023-04-23T11:14:12.444Z,50.908146
2023-04-23T11:15:12.428Z,50.908150
2023-04-23T11:16:12.447Z,50.908134
2023-04-23T11:17:12.412Z,50.908123
2023-04-23T11:18:12.400Z,50.908073
2023-04-23T11:19:12.433Z,50.908112
2023-04-23T11:20:12.381Z,50.908154
2023-04-23T11:21:12.403Z,50.908131
2023-04-23T11:22:12.369Z,50.908131
2023-04-23T11:23:12.354Z,50.908119
2023-04-23T11:24:12.370Z,50.908112
2023-04-23T11:25:12.348Z,50.908134
2023-04-23T11:26:12.375Z,50.908115